Time;durP1;ratioP1;P1;durP2;ratioP2;P2;SDS_P1;SDS_P2;PMS_P1;PMS_P2;Temp;Humidity;BMP_temperature;BMP_pressure;BME280_temperature;BME280_humidity;BME280_pressure;Samples;Min_cycle;Max_cycle;Signal;HPM_P1;HPM_P2
2023/10/16 00:00:44;;;;;;;5.18;4.20;;;4.30;99.90;;;;;;5054157;28;20412;-81
2023/10/16 00:03:12;;;;;;;7.90;4.43;;;4.20;99.90;;;;;;5052944;28;20029;-78
2023/10/16 00:05:44;;;;;;;7.68;4.20;;;4.30;99.90;;;;;;5054846;28;20017;-77
2023/10/16 00:08:16;;;;;;;6.55;4.28;;;4.20;99.90;;;;;;5057577;28;20048;-77
2023/10/16 00:10:57;;;;;;;8.18;4.80;;;4.20;99.90;;;;;;5044439;28;20485;-80
2023/10/16 00:13:28;;;;;;;7.57;4.45;;;4.20;99.90;;;;;;5052924;28;20454;-78
2023/10/16 00:15:59;;;;;;;7.40;5.00;;;4.20;99.90;;;;;;5051683;28;20031;-78
2023/10/16 00:18:31;;;;;;;5.57;4.22;;;4.30;99.90;;;;;;5054151;28;20013;-81
2023/10/16 00:20:57;;;;;;;5.03;4.18;;;4.20;99.90;;;;;;5053183;28;20100;-81
2023/10/16 00:23:25;;;;;;;6.68;4.07;;;4.20;99.90;;;;;;5052334;28;20119;-77
2023/10/16 00:25:51;;;;;;;6.25;4.10;;;4.20;99.90;;;;;;5058649;28;20039;-80
2023/10/16 00:28:23;;;;;;;7.43;3.78;;;4.20;99.90;;;;;;5055900;28;20029;-81
2023/10/16 00:30:50;;;;;;;7.93;4.78;;;4.20;99.90;;;;;;5052723;28;20024;-80
2023/10/16 00:33:16;;;;;;;4.88;4.05;;;4.20;99.90;;;;;;5051558;28;20454;-81
2023/10/16 00:35:45;;;;;;;5.47;3.40;;;4.10;99.90;;;;;;5052997;28;20426;-77
2023/10/16 00:38:14;;;;;;;6.90;3.80;;;4.10;99.90;;;;;;5053348;28;20068;-78
2023/10/16 00:43:28;;;;;;;5.90;3.25;;;4.10;99.90;;;;;;5042072;28;20552;-76
2023/10/16 00:46:06;;;;;;;5.57;4.18;;;4.10;99.90;;;;;;5051219;28;20067;-77
2023/10/16 00:48:34;;;;;;;6.40;3.83;;;4.20;99.90;;;;;;5057044;28;20049;-78
2023/10/16 00:51:06;;;;;;;4.57;3.53;;;4.20;99.90;;;;;;5051252;28;20466;-81
2023/10/16 00:53:33;;;;;;;5.38;3.97;;;4.20;99.90;;;;;;5053367;28;20048;-77
2023/10/16 00:56:02;;;;;;;4.63;3.60;;;4.20;99.90;;;;;;5052210;28;20457;-77
2023/10/16 00:58:29;;;;;;;5.93;4.03;;;4.20;99.90;;;;;;5051482;28;20021;-77
2023/10/16 01:00:57;;;;;;;3.78;3.30;;;4.20;99.90;;;;;;5052346;28;20502;-78
2023/10/16 01:03:29;;;;;;;8.25;4.25;;;4.20;99.90;;;;;;5050661;28;20032;-81
2023/10/16 01:05:58;;;;;;;5.45;3.35;;;4.20;99.90;;;;;;5040884;28;20104;-81
2023/10/16 01:08:25;;;;;;;4.47;2.92;;;4.30;99.90;;;;;;5058481;28;20024;-81
2023/10/16 01:10:56;;;;;;;3.28;2.97;;;4.30;99.90;;;;;;5058330;28;20028;-81
2023/10/16 01:13:22;;;;;;;6.82;3.30;;;4.30;99.90;;;;;;5052170;28;20450;-77
2023/10/16 01:15:50;;;;;;;4.78;3.25;;;4.30;99.90;;;;;;5051077;28;20013;-80
2023/10/16 01:18:17;;;;;;;7.95;3.53;;;4.30;99.90;;;;;;5051746;28;20013;-77
2023/10/16 01:20:50;;;;;;;5.82;3.58;;;4.40;99.90;;;;;;5051243;28;20060;-79
2023/10/16 01:23:23;;;;;;;6.18;4.07;;;4.40;99.90;;;;;;5058763;28;20119;-77
2023/10/16 01:25:49;;;;;;;4.97;3.40;;;4.40;99.90;;;;;;5058662;28;20032;-77
2023/10/16 01:28:19;;;;;;;4.07;3.45;;;4.40;99.90;;;;;;5051672;28;20474;-77
2023/10/16 01:30:49;;;;;;;4.22;3.40;;;4.40;99.90;;;;;;5061060;28;20436;-77
2023/10/16 01:33:16;;;;;;;5.18;3.53;;;4.50;99.90;;;;;;5051481;28;20079;-77
2023/10/16 01:35:46;;;;;;;5.63;3.47;;;4.50;99.90;;;;;;5050981;28;20021;-80
2023/10/16 01:38:15;;;;;;;4.15;3.25;;;4.50;99.90;;;;;;5051767;28;20063;-77
2023/10/16 01:41:09;;;;;;;5.70;3.42;;;4.50;99.90;;;;;;5053008;28;20487;-78
2023/10/16 01:43:36;;;;;;;6.55;3.72;;;4.50;99.90;;;;;;5051619;28;20068;-80
2023/10/16 01:46:10;;;;;;;5.32;3.05;;;4.60;99.90;;;;;;5055899;28;20409;-80
2023/10/16 01:48:44;;;;;;;5.72;3.58;;;4.60;99.90;;;;;;5047508;28;20391;-77
2023/10/16 01:51:11;;;;;;;4.70;3.15;;;4.50;99.90;;;;;;5054809;28;20454;-77
2023/10/16 01:53:40;;;;;;;5.88;2.97;;;4.60;99.90;;;;;;5063534;28;20020;-77
2023/10/16 01:56:12;;;;;;;4.53;3.05;;;4.60;99.90;;;;;;5058481;28;20086;-80
2023/10/16 01:58:44;;;;;;;5.75;3.50;;;4.60;99.90;;;;;;5060915;28;20017;-78
2023/10/16 02:01:15;;;;;;;6.10;2.85;;;4.60;99.90;;;;;;5052881;28;20029;-81
2023/10/16 02:03:46;;;;;;;4.88;3.03;;;4.70;99.90;;;;;;5049108;28;20048;-78
2023/10/16 02:06:12;;;;;;;3.05;2.72;;;4.60;99.90;;;;;;5054698;28;20100;-80
2023/10/16 02:08:43;;;;;;;4.20;2.78;;;4.60;99.90;;;;;;5048483;28;20047;-80
2023/10/16 02:11:10;;;;;;;5.97;3.25;;;4.70;99.90;;;;;;5059067;28;20024;-80
2023/10/16 02:13:40;;;;;;;6.95;3.35;;;4.60;99.90;;;;;;5053039;28;20052;-76
2023/10/16 02:16:12;;;;;;;4.07;2.40;;;4.70;99.90;;;;;;5054093;28;20087;-80
2023/10/16 02:18:42;;;;;;;4.13;2.95;;;4.70;99.90;;;;;;5053876;28;20021;-78
2023/10/16 02:21:11;;;;;;;4.22;2.55;;;4.70;99.90;;;;;;5057995;28;20490;-78
2023/10/16 02:23:46;;;;;;;4.28;3.03;;;4.60;99.90;;;;;;5053678;28;20395;-77
2023/10/16 02:26:12;;;;;;;12.52;3.10;;;4.60;99.90;;;;;;5049022;28;20028;-81
2023/10/16 02:28:41;;;;;;;4.38;2.78;;;4.70;99.90;;;;;;5053904;28;20024;-77
2023/10/16 02:31:10;;;;;;;3.47;2.83;;;4.70;99.90;;;;;;5059070;28;20017;-77
2023/10/16 02:33:36;;;;;;;3.58;3.05;;;4.70;99.90;;;;;;5055109;28;20110;-80
2023/10/16 02:36:02;;;;;;;5.65;2.95;;;4.70;99.90;;;;;;5054955;28;20547;-77
2023/10/16 02:38:28;;;;;;;4.07;2.70;;;4.70;99.90;;;;;;5046125;28;20025;-77
2023/10/16 02:41:00;;;;;;;5.03;2.90;;;4.80;99.90;;;;;;5054757;28;20021;-77
2023/10/16 02:43:27;;;;;;;3.42;3.10;;;4.70;99.90;;;;;;5042179;28;20055;-81
2023/10/16 02:45:53;;;;;;;3.60;3.03;;;4.80;99.90;;;;;;5053309;28;20378;-81
2023/10/16 02:48:20;;;;;;;4.38;2.33;;;4.80;99.90;;;;;;5060455;28;20119;-77
2023/10/16 02:51:06;;;;;;;4.90;3.00;;;4.80;99.90;;;;;;5054485;28;20013;-81
2023/10/16 02:53:34;;;;;;;4.93;3.10;;;4.80;99.90;;;;;;5055003;28;20386;-77
2023/10/16 02:56:22;;;;;;;7.93;2.92;;;4.80;99.90;;;;;;5057092;28;20021;-77
2023/10/16 02:58:52;;;;;;;7.72;2.88;;;4.80;99.90;;;;;;5058407;28;20032;-81
2023/10/16 03:01:18;;;;;;;3.90;2.80;;;4.80;99.90;;;;;;5059108;28;20113;-79
2023/10/16 03:03:48;;;;;;;3.67;2.95;;;4.80;99.90;;;;;;5055461;28;20119;-77
2023/10/16 03:06:14;;;;;;;4.18;3.25;;;4.70;99.90;;;;;;5056963;28;20052;-80
2023/10/16 03:08:47;;;;;;;3.35;2.70;;;4.80;99.90;;;;;;5052729;28;20021;-79
2023/10/16 03:11:13;;;;;;;5.88;3.25;;;4.80;99.90;;;;;;5054301;28;20024;-77
2023/10/16 03:13:40;;;;;;;3.70;3.22;;;4.80;99.90;;;;;;5052751;28;20031;-79
2023/10/16 03:16:16;;;;;;;5.28;2.95;;;4.70;99.90;;;;;;5064345;28;20104;-77
2023/10/16 03:18:47;;;;;;;5.47;2.88;;;4.80;99.90;;;;;;5052577;28;20067;-78
2023/10/16 03:23:47;;;;;;;4.72;2.92;;;4.80;99.90;;;;;;5057531;28;20037;-77
2023/10/16 03:26:41;;;;;;;7.78;3.55;;;4.80;99.90;;;;;;5052722;28;20087;-80
2023/10/16 03:29:02;;;;;;;7.28;3.10;;;4.80;99.90;;;;;;5046214;28;20453;-78
2023/10/16 03:31:28;;;;;;;6.45;2.95;;;4.90;99.90;;;;;;5053413;28;20395;-81
2023/10/16 03:33:55;;;;;;;6.90;2.67;;;4.80;99.90;;;;;;5059074;28;20025;-80
2023/10/16 03:36:21;;;;;;;6.22;3.05;;;4.90;99.90;;;;;;5052362;28;20028;-81
2023/10/16 03:38:50;;;;;;;8.05;3.60;;;4.90;99.90;;;;;;5051356;28;20021;-81
2023/10/16 03:43:49;;;;;;;4.90;3.67;;;4.90;99.90;;;;;;5054628;28;20123;-78
2023/10/16 03:46:14;;;;;;;4.80;3.45;;;4.90;99.90;;;;;;5053066;28;20488;-78
2023/10/16 03:48:41;;;;;;;5.90;3.63;;;4.90;99.90;;;;;;5052116;28;20033;-77
2023/10/16 03:51:07;;;;;;;5.03;3.92;;;4.90;99.90;;;;;;5053864;28;20486;-77
2023/10/16 03:53:35;;;;;;;5.03;3.90;;;4.90;99.90;;;;;;5051959;28;20025;-78
2023/10/16 03:56:03;;;;;;;4.38;3.22;;;4.90;99.90;;;;;;5051986;28;20024;-78
2023/10/16 03:58:33;;;;;;;6.70;4.38;;;4.90;99.90;;;;;;5052318;28;20485;-79
2023/10/16 04:01:07;;;;;;;5.53;4.07;;;4.90;99.90;;;;;;5059190;28;20478;-80
2023/10/16 04:03:46;;;;;;;10.93;4.03;;;4.90;99.90;;;;;;5053254;28;20025;-76
2023/10/16 04:06:21;;;;;;;7.05;3.63;;;4.80;99.90;;;;;;5053089;28;20033;-80
2023/10/16 04:08:48;;;;;;;6.78;3.88;;;4.80;99.90;;;;;;5053130;28;20028;-79
2023/10/16 04:11:18;;;;;;;4.55;3.90;;;4.80;99.90;;;;;;5053006;28;20075;-80
2023/10/16 04:13:50;;;;;;;5.00;3.55;;;4.80;99.90;;;;;;5050596;28;20033;-79
2023/10/16 04:22:08;;;;;;;5.15;3.33;;;4.90;99.90;;;;;;5051800;28;20021;-79
2023/10/16 04:24:42;;;;;;;3.65;2.97;;;4.90;99.90;;;;;;5052986;28;20107;-79
2023/10/16 04:29:46;;;;;;;4.53;3.30;;;4.90;99.90;;;;;;5057422;28;20101;-76
2023/10/16 04:35:04;;;;;;;4.13;3.42;;;5.00;99.90;;;;;;5050560;28;20083;-80
2023/10/16 04:37:31;;;;;;;4.45;3.47;;;5.00;99.90;;;;;;5051328;28;20487;-80
2023/10/16 04:45:24;;;;;;;3.60;3.30;;;5.00;99.90;;;;;;5049999;28;20952;-77
2023/10/16 05:13:17;;;;;;;4.80;3.17;;;5.00;99.90;;;;;;5053567;28;20060;-81
2023/10/16 05:17:21;;;;;;;3.13;2.90;;;5.00;99.90;;;;;;5047147;28;20029;-81
2023/10/16 05:19:53;;;;;;;7.03;4.35;;;5.00;99.90;;;;;;5051523;28;20055;-81
2023/10/16 06:14:20;;;;;;;20.75;8.88;;;5.20;99.90;;;;;;5060655;28;20071;-78
2023/10/16 06:16:48;;;;;;;8.02;5.03;;;5.20;99.90;;;;;;5056999;28;20424;-77
2023/10/16 06:19:15;;;;;;;9.88;5.18;;;5.20;99.90;;;;;;5056790;28;20162;-77
2023/10/16 06:21:56;;;;;;;9.80;5.43;;;5.20;99.90;;;;;;5063545;28;20456;-77
2023/10/16 06:24:25;;;;;;;8.02;3.78;;;5.20;99.90;;;;;;5059173;28;20540;-78
2023/10/16 06:26:56;;;;;;;7.97;4.72;;;5.20;99.90;;;;;;5055505;28;20739;-77
2023/10/16 06:29:25;;;;;;;25.65;11.93;;;5.20;99.90;;;;;;5053061;28;20045;-81
2023/10/16 06:31:58;;;;;;;29.63;12.23;;;5.20;99.90;;;;;;5052257;28;20025;-81
2023/10/16 06:34:24;;;;;;;8.75;5.68;;;5.20;99.90;;;;;;5053933;28;20116;-78
2023/10/16 06:36:53;;;;;;;5.55;3.97;;;5.20;99.90;;;;;;5062673;28;20025;-78
2023/10/16 06:39:28;;;;;;;5.65;4.00;;;5.30;99.90;;;;;;5053625;28;20025;-78
2023/10/16 06:41:57;;;;;;;5.80;4.07;;;5.30;99.90;;;;;;5053561;28;20451;-78
2023/10/16 06:44:28;;;;;;;7.82;4.70;;;5.30;99.90;;;;;;5053220;28;20079;-78
2023/10/16 06:46:58;;;;;;;9.73;5.55;;;5.30;99.90;;;;;;5054611;28;20051;-78
2023/10/16 06:49:37;;;;;;;16.85;7.68;;;5.30;99.90;;;;;;5053561;28;20028;-78
2023/10/16 06:52:04;;;;;;;10.07;6.82;;;5.40;99.90;;;;;;5054455;28;20352;-78
2023/10/16 06:54:39;;;;;;;13.70;6.80;;;5.30;99.90;;;;;;5054364;28;20021;-78
2023/10/16 06:57:12;;;;;;;14.68;6.40;;;5.40;99.90;;;;;;5053338;28;20024;-81
2023/10/16 06:59:42;;;;;;;19.83;6.22;;;5.30;99.90;;;;;;5053957;28;20028;-78
2023/10/16 07:02:15;;;;;;;8.57;5.13;;;5.40;99.90;;;;;;5053939;28;20051;-78
2023/10/16 07:04:41;;;;;;;;;;;5.30;99.90;;;;;;5054781;28;20108;-78
2023/10/16 07:07:14;;;;;;;5.72;4.35;;;5.30;99.90;;;;;;5052675;28;19931;-80
2023/10/16 07:09:47;;;;;;;7.85;4.20;;;5.30;99.90;;;;;;5054289;28;20024;-78
2023/10/16 07:12:13;;;;;;;12.15;4.82;;;5.30;99.90;;;;;;5051715;28;20021;-81
2023/10/16 07:14:39;;;;;;;15.77;8.32;;;5.40;99.90;;;;;;5054028;28;20029;-81
2023/10/16 07:17:04;;;;;;;15.73;4.32;;;5.40;99.90;;;;;;5052437;28;20086;-81
2023/10/16 07:19:30;;;;;;;4.15;3.00;;;5.40;99.90;;;;;;5054717;28;20017;-81
2023/10/16 07:21:56;;;;;;;4.47;2.92;;;5.40;99.90;;;;;;5052290;28;20103;-81
2023/10/16 07:24:22;;;;;;;5.30;3.47;;;5.40;99.90;;;;;;5042818;28;20041;-81
2023/10/16 07:26:48;;;;;;;9.60;5.18;;;5.40;99.90;;;;;;5047418;28;20517;-81
2023/10/16 07:29:14;;;;;;;16.80;9.02;;;5.40;99.90;;;;;;5049987;28;20474;-81
2023/10/16 07:31:40;;;;;;;11.30;6.10;;;5.40;99.90;;;;;;5052377;28;20098;-81
2023/10/16 07:34:05;;;;;;;7.28;3.90;;;5.50;99.90;;;;;;5059643;28;20163;-81
2023/10/16 07:36:31;;;;;;;19.23;9.65;;;5.50;99.90;;;;;;5054807;28;20513;-79
2023/10/16 07:38:57;;;;;;;13.88;6.20;;;5.50;99.90;;;;;;5052617;28;20029;-81
2023/10/16 07:41:26;;;;;;;14.27;7.18;;;5.50;99.90;;;;;;5052579;28;20083;-81
2023/10/16 07:43:57;;;;;;;14.77;8.60;;;5.50;99.90;;;;;;5053609;28;20044;-78
2023/10/16 07:46:29;;;;;;;31.75;15.60;;;5.50;99.90;;;;;;5053196;28;20032;-78
2023/10/16 07:48:57;;;;;;;20.10;11.40;;;5.50;99.90;;;;;;5052159;28;20059;-78
2023/10/16 07:51:27;;;;;;;19.20;9.43;;;5.60;99.90;;;;;;5050002;28;20024;-78
2023/10/16 07:53:54;;;;;;;18.77;12.18;;;5.60;99.90;;;;;;5052987;28;20025;-78
2023/10/16 07:59:06;;;;;;;69.53;40.00;;;5.70;99.90;;;;;;5053328;28;20025;-81
2023/10/16 08:01:36;;;;;;;34.13;17.67;;;5.70;99.90;;;;;;5050996;28;20033;-78
2023/10/16 08:04:06;;;;;;;34.03;17.05;;;5.80;99.90;;;;;;5054331;28;20048;-78
2023/10/16 08:06:33;;;;;;;31.98;15.40;;;5.80;99.90;;;;;;5053163;28;20116;-81
2023/10/16 08:11:42;;;;;;;35.28;17.80;;;5.70;99.90;;;;;;5053346;28;20425;-78
2023/10/16 08:14:09;;;;;;;22.08;11.93;;;5.80;99.90;;;;;;5051293;28;20025;-78
2023/10/16 08:16:35;;;;;;;32.80;14.40;;;5.90;99.90;;;;;;5052982;28;20036;-81
2023/10/16 08:19:00;;;;;;;43.70;19.42;;;5.80;99.90;;;;;;5052587;28;20021;-79
2023/10/16 08:21:26;;;;;;;29.35;11.43;;;5.80;99.90;;;;;;5052783;28;20025;-78
2023/10/16 08:23:56;;;;;;;49.90;21.23;;;5.80;99.90;;;;;;5052520;28;20120;-79
2023/10/16 08:26:28;;;;;;;15.13;8.70;;;5.80;99.90;;;;;;5052837;28;20941;-78
2023/10/16 08:31:45;;;;;;;14.05;7.38;;;5.70;99.90;;;;;;5052592;28;20107;-79
2023/10/16 08:34:21;;;;;;;27.65;12.25;;;5.80;99.90;;;;;;5060061;28;20021;-81
2023/10/16 08:36:50;;;;;;;15.85;7.60;;;5.80;99.90;;;;;;5050592;28;20025;-81
2023/10/16 08:39:17;;;;;;;25.13;11.60;;;5.80;99.90;;;;;;5063979;28;20023;-81
2023/10/16 08:41:44;;;;;;;34.55;16.13;;;5.90;99.90;;;;;;5051496;28;20013;-78
2023/10/16 08:44:21;;;;;;;11.23;6.78;;;5.90;99.90;;;;;;5051413;28;20135;-80
2023/10/16 08:49:25;;;;;;;6.28;4.05;;;5.90;99.90;;;;;;5049119;28;20028;-80
2023/10/16 08:52:10;;;;;;;8.40;4.88;;;5.80;99.90;;;;;;5052150;28;20028;-80
2023/10/16 08:57:28;;;;;;;8.35;4.90;;;5.90;99.90;;;;;;5052373;28;20435;-78
2023/10/16 08:59:58;;;;;;;13.70;6.88;;;5.90;99.90;;;;;;5051470;28;20150;-78
2023/10/16 09:02:26;;;;;;;23.73;12.35;;;6.00;99.90;;;;;;5050928;28;20104;-78
2023/10/16 09:04:52;;;;;;;16.10;8.73;;;6.00;99.90;;;;;;5055083;28;20028;-81
2023/10/16 09:07:19;;;;;;;8.63;5.60;;;6.10;99.90;;;;;;5052275;28;20063;-78
2023/10/16 09:09:53;;;;;;;8.10;4.97;;;6.10;99.90;;;;;;5055865;28;20052;-80
2023/10/16 09:12:37;;;;;;;13.60;7.50;;;6.10;99.90;;;;;;5051182;28;20378;-78
2023/10/16 09:15:09;;;;;;;9.85;5.97;;;6.10;99.90;;;;;;5051317;28;20111;-78
2023/10/16 09:17:35;;;;;;;9.55;5.07;;;6.10;99.90;;;;;;5055780;28;20107;-81
2023/10/16 09:20:12;;;;;;;26.70;12.70;;;6.10;99.90;;;;;;5057577;28;20043;-79
2023/10/16 09:22:40;;;;;;;20.45;10.77;;;6.10;99.90;;;;;;5052203;28;20025;-78
2023/10/16 09:25:08;;;;;;;25.25;12.75;;;6.20;99.90;;;;;;5050854;28;20033;-78
2023/10/16 09:27:36;;;;;;;23.90;9.77;;;6.20;99.90;;;;;;5050927;28;20033;-80
2023/10/16 09:30:14;;;;;;;25.58;8.90;;;6.20;99.90;;;;;;5052149;28;20032;-80
2023/10/16 09:32:40;;;;;;;31.95;13.27;;;6.20;99.90;;;;;;5052289;28;20082;-78
2023/10/16 09:35:11;;;;;;;36.08;18.15;;;6.20;99.90;;;;;;5059943;28;20120;-79
2023/10/16 09:37:40;;;;;;;15.80;7.95;;;6.20;99.90;;;;;;5050744;28;20064;-78
2023/10/16 09:40:19;;;;;;;24.90;12.55;;;6.20;99.90;;;;;;5051910;28;20025;-78
2023/10/16 09:42:55;;;;;;;14.25;6.47;;;6.30;99.90;;;;;;5062874;28;20145;-79
2023/10/16 09:45:25;;;;;;;16.60;7.82;;;6.30;99.90;;;;;;5052140;28;20025;-79
2023/10/16 09:47:56;;;;;;;20.67;9.55;;;6.30;99.90;;;;;;5050573;28;20041;-81
2023/10/16 09:50:24;;;;;;;17.20;8.32;;;6.30;99.90;;;;;;5056351;28;20037;-80
2023/10/16 09:52:49;;;;;;;14.38;6.90;;;6.40;99.90;;;;;;5053696;28;20047;-81
2023/10/16 09:55:19;;;;;;;9.40;4.60;;;6.40;99.90;;;;;;5052093;28;20127;-80
2023/10/16 09:57:54;;;;;;;7.50;4.22;;;6.30;99.90;;;;;;5039199;28;20356;-81
2023/10/16 10:03:11;;;;;;;14.25;6.25;;;6.50;99.90;;;;;;5058849;28;20039;-79
2023/10/16 10:05:49;;;;;;;7.75;4.20;;;6.50;99.90;;;;;;5058355;28;20021;-78
2023/10/16 10:08:27;;;;;;;8.55;4.50;;;6.60;99.90;;;;;;5054262;28;20410;-80
2023/10/16 10:11:23;;;;;;;8.82;4.50;;;6.80;99.90;;;;;;5054397;28;20148;-80
2023/10/16 10:14:20;;;;;;;6.13;3.85;;;6.80;99.90;;;;;;5052965;28;20028;-79
2023/10/16 10:16:49;;;;;;;9.32;4.57;;;6.80;99.90;;;;;;5055412;28;20021;-81
2023/10/16 10:19:24;;;;;;;12.27;7.55;;;6.80;99.90;;;;;;5058423;28;20059;-78
2023/10/16 10:21:53;;;;;;;12.57;7.20;;;6.80;99.90;;;;;;5057645;28;20060;-81
2023/10/16 10:24:21;;;;;;;10.50;6.15;;;6.80;99.90;;;;;;5050559;28;20071;-78
2023/10/16 10:26:55;;;;;;;15.73;7.85;;;6.90;99.90;;;;;;5056959;28;20175;-78
2023/10/16 10:29:22;;;;;;;9.18;5.03;;;7.00;99.90;;;;;;5054712;28;20391;-79
2023/10/16 10:31:47;;;;;;;6.47;4.30;;;7.10;99.90;;;;;;5055591;28;20115;-79
2023/10/16 10:34:18;;;;;;;7.57;4.70;;;7.10;99.90;;;;;;5056587;28;20124;-79
2023/10/16 10:36:44;;;;;;;7.43;5.25;;;7.10;99.90;;;;;;5053210;28;20028;-79
2023/10/16 10:39:36;;;;;;;19.25;9.80;;;7.00;99.90;;;;;;5053263;28;20032;-79
2023/10/16 10:42:05;;;;;;;10.63;5.80;;;7.00;99.90;;;;;;5053404;28;20029;-79
2023/10/16 10:44:43;;;;;;;22.52;11.55;;;7.00;99.90;;;;;;5050779;28;20045;-78
2023/10/16 10:47:24;;;;;;;10.77;7.25;;;7.10;99.90;;;;;;5055828;28;20441;-78
2023/10/16 10:49:59;;;;;;;29.77;13.68;;;7.10;99.90;;;;;;5045706;28;20036;-78
2023/10/16 10:52:30;;;;;;;54.53;25.05;;;7.10;99.90;;;;;;5053005;28;20052;-79
2023/10/16 10:55:06;;;;;;;77.07;35.25;;;7.20;99.90;;;;;;5053080;28;20394;-79
2023/10/16 10:57:34;;;;;;;39.75;15.02;;;7.20;99.90;;;;;;5050700;28;20467;-78
2023/10/16 11:02:52;;;;;;;29.55;14.02;;;7.40;99.90;;;;;;5054606;28;20080;-77
2023/10/16 11:05:24;;;;;;;45.85;19.92;;;7.50;99.90;;;;;;5052695;28;20036;-78
2023/10/16 11:08:17;;;;;;;;;;;7.60;99.90;;;;;;5054295;28;20043;-78
2023/10/16 11:10:46;;;;;;;45.03;17.15;;;7.70;99.90;;;;;;5052368;28;19916;-79
2023/10/16 11:13:14;;;;;;;76.80;33.65;;;7.70;99.90;;;;;;5051604;28;20047;-79
2023/10/16 11:15:54;;;;;;;43.47;24.23;;;7.60;99.90;;;;;;5047178;28;20029;-79
2023/10/16 11:18:21;;;;;;;16.10;7.53;;;7.60;99.90;;;;;;5041181;28;20026;-78
2023/10/16 11:20:49;;;;;;;16.48;7.40;;;7.60;99.90;;;;;;5050680;28;20048;-78
2023/10/16 11:23:17;;;;;;;23.63;9.98;;;7.60;99.90;;;;;;5040076;28;20033;-81
2023/10/16 11:25:50;;;;;;;16.05;9.77;;;7.60;99.90;;;;;;5046723;28;20056;-81
2023/10/16 11:28:31;;;;;;;13.77;6.03;;;7.60;98.80;;;;;;5047250;28;20079;-81
2023/10/16 11:30:58;;;;;;;16.65;9.23;;;7.70;99.90;;;;;;5054071;28;20013;-81
2023/10/16 11:34:00;;;;;;;13.88;6.28;;;7.60;99.10;;;;;;5037615;28;20128;-81
2023/10/16 11:36:23;;;;;;;49.67;15.60;;;7.50;97.00;;;;;;5052504;28;20036;-82
2023/10/16 11:38:51;;;;;;;11.32;6.13;;;7.40;99.40;;;;;;5034358;28;20017;-81
2023/10/16 11:41:19;;;;;;;44.17;15.35;;;7.20;99.90;;;;;;5041740;28;20120;-82
2023/10/16 11:43:51;;;;;;;60.40;17.63;;;7.10;99.90;;;;;;5052616;28;20051;-81
2023/10/16 11:46:33;;;;;;;8.35;3.90;;;6.90;99.90;;;;;;5052350;28;20024;-82
2023/10/16 11:52:08;;;;;;;11.80;4.85;;;6.30;99.90;;;;;;5051528;28;20037;-82
2023/10/16 11:54:34;;;;;;;28.00;9.05;;;6.00;99.90;;;;;;5047277;28;20025;-82
2023/10/16 11:57:00;;;;;;;33.33;12.25;;;6.00;99.90;;;;;;5043958;28;20048;-81
2023/10/16 11:59:28;;;;;;;179.15;60.95;;;6.10;99.90;;;;;;5054495;28;20024;-82
2023/10/16 12:01:59;;;;;;;146.73;52.67;;;6.30;99.90;;;;;;5050114;28;20104;-81
2023/10/16 12:04:26;;;;;;;251.05;91.20;;;6.40;99.90;;;;;;5044892;28;20054;-82
2023/10/16 12:06:52;;;;;;;109.78;48.75;;;6.50;99.90;;;;;;5049932;28;20033;-82
2023/10/16 12:09:21;;;;;;;23.33;11.32;;;6.50;99.90;;;;;;5044630;28;20045;-81
2023/10/16 12:11:51;;;;;;;11.75;6.55;;;6.60;99.90;;;;;;5046257;28;20025;-82
2023/10/16 12:14:20;;;;;;;6.70;5.00;;;6.70;99.90;;;;;;5045325;28;20487;-82
2023/10/16 12:16:47;;;;;;;19.20;7.60;;;6.80;99.90;;;;;;5054533;28;20479;-81
2023/10/16 12:19:14;;;;;;;25.40;13.65;;;6.80;99.90;;;;;;5046161;28;20030;-81
2023/10/16 12:21:40;;;;;;;17.70;9.38;;;6.90;99.90;;;;;;5049447;28;20083;-81
2023/10/16 12:24:07;;;;;;;18.63;7.38;;;7.00;99.90;;;;;;5049537;28;20056;-81
2023/10/16 12:26:34;;;;;;;21.02;9.90;;;7.10;99.90;;;;;;5054659;28;20110;-81
2023/10/16 12:29:00;;;;;;;48.47;20.35;;;7.20;99.90;;;;;;5051915;28;20033;-82
2023/10/16 12:31:26;;;;;;;11.20;6.10;;;7.30;99.90;;;;;;5036955;28;20033;-81
2023/10/16 12:33:52;;;;;;;10.63;6.25;;;7.40;99.90;;;;;;5051124;28;20025;-82
2023/10/16 12:36:18;;;;;;;7.47;4.28;;;7.40;99.90;;;;;;5046849;28;20052;-81
2023/10/16 12:38:44;;;;;;;5.63;3.63;;;7.40;99.90;;;;;;5050972;28;20052;-81
2023/10/16 12:41:10;;;;;;;5.43;3.80;;;7.50;99.90;;;;;;5040834;28;20033;-82
2023/10/16 12:43:36;;;;;;;18.95;5.63;;;7.40;99.90;;;;;;5046072;28;20086;-82
2023/10/16 12:46:03;;;;;;;8.30;4.15;;;7.50;99.90;;;;;;5045333;28;20029;-82
2023/10/16 12:48:29;;;;;;;9.45;4.38;;;7.50;99.90;;;;;;5048001;28;20548;-80
2023/10/16 12:51:00;;;;;;;27.25;11.20;;;7.50;99.90;;;;;;5044201;28;20048;-81
2023/10/16 12:53:29;;;;;;;69.80;23.23;;;7.50;99.90;;;;;;5046117;28;20058;-82
2023/10/16 12:55:55;;;;;;;94.57;34.15;;;7.40;99.90;;;;;;5039856;28;20033;-81
2023/10/16 12:58:22;;;;;;;42.38;17.67;;;7.40;99.90;;;;;;5037626;28;20025;-81
2023/10/16 13:00:50;;;;;;;27.85;11.70;;;7.20;99.90;;;;;;5044455;28;20116;-81
2023/10/16 13:03:20;;;;;;;23.05;10.55;;;7.00;99.90;;;;;;5051526;28;20037;-81
2023/10/16 13:05:48;;;;;;;12.02;6.60;;;6.90;99.90;;;;;;5051569;28;20029;-80
2023/10/16 13:08:16;;;;;;;11.60;5.47;;;6.90;99.90;;;;;;5044803;28;20017;-80
2023/10/16 13:10:43;;;;;;;7.38;3.50;;;6.80;99.90;;;;;;5047959;28;20025;-80
2023/10/16 13:13:09;;;;;;;6.35;3.22;;;6.80;99.90;;;;;;5060884;28;20536;-81
2023/10/16 13:15:35;;;;;;;9.13;3.55;;;6.80;99.90;;;;;;5051680;28;20029;-81
2023/10/16 13:18:01;;;;;;;12.88;7.03;;;6.80;99.90;;;;;;5045488;28;20543;-80
2023/10/16 13:20:27;;;;;;;5.28;3.90;;;6.80;99.90;;;;;;5041592;28;20113;-80
2023/10/16 13:22:54;;;;;;;7.47;4.53;;;6.80;99.90;;;;;;5037173;28;20490;-80
2023/10/16 13:25:22;;;;;;;5.75;4.07;;;6.60;99.90;;;;;;5037881;28;20475;-80
2023/10/16 13:27:49;;;;;;;9.15;3.95;;;6.60;99.90;;;;;;5055873;28;20017;-81
2023/10/16 13:30:18;;;;;;;9.63;5.50;;;6.40;99.90;;;;;;5048261;28;20021;-82
2023/10/16 13:32:47;;;;;;;6.75;3.42;;;6.30;99.90;;;;;;5046953;28;20134;-82
2023/10/16 13:35:15;;;;;;;7.47;4.38;;;6.40;99.90;;;;;;5045555;28;20074;-81
2023/10/16 13:37:42;;;;;;;8.55;3.97;;;6.30;99.90;;;;;;5043849;28;20776;-81
2023/10/16 13:40:19;;;;;;;7.85;4.47;;;6.30;99.90;;;;;;5051745;28;20104;-81
2023/10/16 13:42:47;;;;;;;6.90;4.65;;;6.40;99.90;;;;;;5048619;28;20060;-81
2023/10/16 13:45:13;;;;;;;6.63;3.60;;;6.50;99.90;;;;;;5050537;28;20024;-81
2023/10/16 13:47:43;;;;;;;8.98;4.38;;;6.40;99.90;;;;;;5049198;28;20057;-81
2023/10/16 13:50:29;;;;;;;9.30;6.00;;;6.50;99.90;;;;;;5048147;28;20017;-81
2023/10/16 13:52:55;;;;;;;8.10;4.75;;;6.50;99.90;;;;;;5049203;28;20025;-81
2023/10/16 13:55:23;;;;;;;8.15;4.03;;;6.50;99.90;;;;;;5049064;28;20020;-78
2023/10/16 13:57:51;;;;;;;15.13;7.65;;;6.40;99.90;;;;;;5051290;28;20017;-78
2023/10/16 14:00:31;;;;;;;19.27;11.00;;;6.40;99.90;;;;;;5049395;28;20056;-78
2023/10/16 14:03:17;;;;;;;10.18;6.68;;;6.40;99.90;;;;;;5045902;28;20406;-78
2023/10/16 14:05:47;;;;;;;12.80;7.25;;;6.30;99.90;;;;;;5049734;28;20028;-80
2023/10/16 14:08:17;;;;;;;12.65;7.78;;;6.10;99.90;;;;;;5057078;28;20095;-78
2023/10/16 14:10:49;;;;;;;4.85;3.00;;;6.10;99.90;;;;;;5046681;28;20021;-78
2023/10/16 14:13:19;;;;;;;5.22;2.58;;;5.90;99.90;;;;;;5041210;28;20014;-79
2023/10/16 14:15:46;;;;;;;3.13;2.10;;;5.90;99.90;;;;;;5051547;28;20099;-79
2023/10/16 14:18:15;;;;;;;3.47;2.25;;;5.90;99.90;;;;;;5055825;28;20024;-79
2023/10/16 14:20:51;;;;;;;4.50;3.10;;;6.00;99.90;;;;;;5051364;28;20017;-79
2023/10/16 14:23:18;;;;;;;6.78;4.50;;;6.00;99.90;;;;;;5047647;28;20037;-77
2023/10/16 14:25:48;;;;;;;5.78;3.58;;;6.00;99.90;;;;;;5049773;28;20558;-78
2023/10/16 14:28:28;;;;;;;5.70;3.70;;;6.10;99.90;;;;;;5049538;28;20022;-78
2023/10/16 14:31:00;;;;;;;4.88;4.00;;;6.10;99.90;;;;;;5051652;28;20040;-78
2023/10/16 14:33:30;;;;;;;5.00;4.05;;;6.10;99.90;;;;;;5046797;28;20025;-77
2023/10/16 14:35:57;;;;;;;5.35;3.40;;;6.10;99.90;;;;;;5048171;28;20642;-79
2023/10/16 14:38:27;;;;;;;4.65;3.15;;;6.00;99.90;;;;;;5049642;28;20021;-79
2023/10/16 14:41:03;;;;;;;5.78;3.70;;;6.10;99.90;;;;;;5048518;28;20031;-79
2023/10/16 14:43:34;;;;;;;8.18;4.95;;;6.10;99.90;;;;;;5048742;28;20037;-79
2023/10/16 14:46:04;;;;;;;7.53;5.03;;;6.00;99.90;;;;;;5044998;28;20033;-79
2023/10/16 14:48:33;;;;;;;10.10;4.68;;;6.00;99.90;;;;;;5044735;28;20053;-78
2023/10/16 14:50:59;;;;;;;11.57;6.20;;;6.00;99.90;;;;;;5052053;28;20040;-78
2023/10/16 14:53:25;;;;;;;10.30;6.20;;;5.90;99.90;;;;;;5042359;28;20017;-78
2023/10/16 14:55:51;;;;;;;13.88;5.15;;;5.90;99.90;;;;;;5049191;28;20032;-78
2023/10/16 14:58:18;;;;;;;11.15;5.50;;;5.90;99.90;;;;;;5048796;28;20086;-78
2023/10/16 15:00:48;;;;;;;16.08;7.75;;;5.80;99.90;;;;;;5050790;28;20017;-78
2023/10/16 15:03:14;;;;;;;32.22;15.15;;;5.80;99.90;;;;;;5049912;28;20068;-77
2023/10/16 15:05:41;;;;;;;53.63;24.48;;;5.80;99.90;;;;;;5053226;28;20111;-77
2023/10/16 15:08:13;;;;;;;45.28;20.75;;;5.80;99.90;;;;;;5049990;28;20056;-77
2023/10/16 15:10:43;;;;;;;44.63;20.80;;;5.80;99.90;;;;;;5051911;28;20017;-77